Disclaimer

Please do not use the information listed here in-flight or in-navigation, as they are not provided to us by the airports but are provided by volunteers, so they might be outdated.

Search


Regions


Airport information page

No radio frequency information is available.

Airport informations:
Latitude: 03° 26' 06.58" S
Longitude: 079° 58' 40.14" W
Elevation: 170 feet - 52 meters
Operating hours: From sunrise to sunset (SR-SS)
Operating agency: Private
Timezone: UTC-5
Fuel: N/A

Runway information:
09/27 - 3255 x 59 feet< - >992 x 18 meters

Recent METARs:
SERO 202100Z 34008KT 9999 FEW013 OVC020 26/21 Q1009
SERO 202100Z 34008KT 9999 FEW013 OVC020 26/21 Q1009
SERO 202200Z 32003KT 9999 FEW013 OVC020 25/21 Q1009

Airport on the map: